UAE9675 LGAV-OMDB
Flight info
| Callsign | UAE9675 |
|---|---|
| Flight time | N/A |
| Altitude | 35000 |
| Route | KEA UL607 PAXIS Y707 OBRAN L321 REXUM M872 BDB Y214 RAPMA DCT KUVSO DCT KATIT DCT PEKEM M628 RIGIL G783 ASPED Q308 KIPOK Q568 IMPED |
| Aircraft | B77L/H-SDE1E2E3FGHIJ2J3J4J5M1RWXY/LB1D1 |
Departure
| Time | N/A |
|---|---|
| Airport | Athens Eleftherios Venizelos International Airport (LGAV) |
Arrival
| Time | 2026-04-26 22:20 |
|---|---|
| Airport | Dubai International Airport (OMDB) |
| Time | Latitude | Longitude | Altitude | Speed | Heading |
|---|---|---|---|---|---|
| 2026-04-26 18:08 | 37.37606 | 24.86008 | 29433 ft | 503 kts | 180° |
| 2026-04-26 18:09 | 37.34111 | 24.85742 | 30002 ft | 503 kts | 189° |
| 2026-04-26 18:09 | 37.30647 | 24.85053 | 30472 ft | 505 kts | 192° |
| 2026-04-26 18:09 | 37.28349 | 24.84540 | 30719 ft | 508 kts | 192° |
| 2026-04-26 18:09 | 37.23654 | 24.83592 | 31301 ft | 511 kts | 190° |
| 2026-04-26 18:10 | 37.21328 | 24.83203 | 31678 ft | 510 kts | 189° |
| 2026-04-26 18:10 | 37.16619 | 24.82545 | 32544 ft | 506 kts | 187° |
| 2026-04-26 18:10 | 37.14303 | 24.82258 | 32961 ft | 504 kts | 187° |
| 2026-04-26 18:10 | 37.10813 | 24.81839 | 33530 ft | 503 kts | 187° |
| 2026-04-26 18:11 | 37.07363 | 24.81422 | 34026 ft | 502 kts | 187° |
| 2026-04-26 18:11 | 37.03878 | 24.80990 | 34459 ft | 502 kts | 187° |
| 2026-04-26 18:11 | 37.00402 | 24.80551 | 34910 ft | 500 kts | 187° |
| 2026-04-26 18:11 | 36.96925 | 24.80146 | 35031 ft | 505 kts | 184° |
| 2026-04-26 18:12 | 36.93412 | 24.80396 | 35047 ft | 507 kts | 171° |
| 2026-04-26 18:12 | 36.86862 | 24.83239 | 35014 ft | 498 kts | 149° |
| 2026-04-26 18:13 | 36.80972 | 24.87975 | 35044 ft | 510 kts | 146° |
| 2026-04-26 18:13 | 36.74980 | 24.92799 | 35024 ft | 513 kts | 147° |
| 2026-04-26 18:14 | 36.68909 | 24.97476 | 35030 ft | 512 kts | 148° |
| 2026-04-26 18:14 | 36.62930 | 25.02045 | 35048 ft | 516 kts | 147° |
| 2026-04-26 18:15 | 36.56788 | 25.06737 | 35056 ft | 528 kts | 147° |
| 2026-04-26 18:15 | 36.50496 | 25.11538 | 35032 ft | 530 kts | 147° |
| 2026-04-26 18:16 | 36.44210 | 25.16327 | 35031 ft | 529 kts | 147° |
| 2026-04-26 18:16 | 36.34846 | 25.23443 | 35032 ft | 528 kts | 147° |
| 2026-04-26 18:17 | 36.28573 | 25.28199 | 35029 ft | 527 kts | 147° |
| 2026-04-26 18:17 | 36.22315 | 25.32936 | 35025 ft | 527 kts | 147° |
| 2026-04-26 18:18 | 36.16044 | 25.37674 | 35032 ft | 528 kts | 147° |
| 2026-04-26 18:18 | 36.09771 | 25.42404 | 35037 ft | 528 kts | 147° |
| 2026-04-26 18:19 | 36.03480 | 25.47140 | 35038 ft | 529 kts | 147° |
| 2026-04-26 18:19 | 35.97252 | 25.51824 | 35036 ft | 530 kts | 147° |
| 2026-04-26 18:20 | 35.90952 | 25.56554 | 35035 ft | 530 kts | 147° |
| 2026-04-26 18:20 | 35.85709 | 25.60484 | 35033 ft | 530 kts | 147° |
| 2026-04-26 18:21 | 35.78317 | 25.66013 | 35044 ft | 531 kts | 147° |
| 2026-04-26 18:21 | 35.71987 | 25.70739 | 35033 ft | 533 kts | 147° |
| 2026-04-26 18:22 | 35.65683 | 25.75436 | 35033 ft | 534 kts | 147° |
| 2026-04-26 18:22 | 35.59325 | 25.80165 | 35028 ft | 534 kts | 147° |
| 2026-04-26 18:23 | 35.52959 | 25.84890 | 35026 ft | 534 kts | 147° |
| 2026-04-26 18:23 | 35.46582 | 25.89615 | 35031 ft | 535 kts | 147° |
| 2026-04-26 18:24 | 35.40206 | 25.94331 | 35028 ft | 534 kts | 147° |
| 2026-04-26 18:24 | 35.33875 | 25.99005 | 35039 ft | 535 kts | 147° |
| 2026-04-26 18:25 | 35.27610 | 26.03622 | 35027 ft | 534 kts | 147° |
| 2026-04-26 18:25 | 35.21199 | 26.08337 | 35020 ft | 535 kts | 147° |
| 2026-04-26 18:26 | 35.14817 | 26.13024 | 35034 ft | 535 kts | 147° |
| 2026-04-26 18:26 | 35.08467 | 26.17698 | 35011 ft | 535 kts | 145° |
| 2026-04-26 18:27 | 35.02548 | 26.23137 | 35027 ft | 531 kts | 136° |
| 2026-04-26 18:27 | 34.96986 | 26.29030 | 35022 ft | 531 kts | 136° |
| 2026-04-26 18:28 | 34.91377 | 26.34943 | 35013 ft | 533 kts | 136° |
| 2026-04-26 18:28 | 34.85770 | 26.40780 | 35003 ft | 534 kts | 137° |
| 2026-04-26 18:29 | 34.80110 | 26.46635 | 35003 ft | 534 kts | 137° |
| 2026-04-26 18:29 | 34.74442 | 26.52488 | 35003 ft | 534 kts | 137° |
| 2026-04-26 18:30 | 34.68776 | 26.58334 | 35018 ft | 535 kts | 137° |
| 2026-04-26 18:30 | 34.63102 | 26.64179 | 35002 ft | 536 kts | 137° |
| 2026-04-26 18:31 | 34.57404 | 26.70037 | 35005 ft | 536 kts | 137° |
| 2026-04-26 18:31 | 34.51706 | 26.75885 | 35000 ft | 537 kts | 137° |
| 2026-04-26 18:32 | 34.46001 | 26.81728 | 35000 ft | 537 kts | 137° |
| 2026-04-26 18:32 | 34.40284 | 26.87573 | 35027 ft | 537 kts | 137° |
| 2026-04-26 18:33 | 34.34563 | 26.93412 | 34999 ft | 537 kts | 138° |
| 2026-04-26 18:33 | 34.28846 | 26.99236 | 34998 ft | 538 kts | 138° |
| 2026-04-26 18:34 | 34.23218 | 27.04959 | 35003 ft | 538 kts | 138° |
| 2026-04-26 18:34 | 34.17525 | 27.10737 | 35002 ft | 538 kts | 138° |
| 2026-04-26 18:35 | 34.11794 | 27.16543 | 34997 ft | 538 kts | 138° |
| 2026-04-26 18:35 | 34.06053 | 27.22351 | 35003 ft | 539 kts | 139° |
| 2026-04-26 18:36 | 34.00301 | 27.28159 | 34991 ft | 540 kts | 139° |
| 2026-04-26 18:36 | 33.94231 | 27.33497 | 34998 ft | 542 kts | 148° |
| 2026-04-26 18:37 | 33.87489 | 27.37554 | 34997 ft | 542 kts | 157° |
| 2026-04-26 18:37 | 33.80555 | 27.41133 | 34995 ft | 543 kts | 157° |
| 2026-04-26 18:38 | 33.73602 | 27.44745 | 34986 ft | 544 kts | 157° |
| 2026-04-26 18:38 | 33.66674 | 27.48392 | 35011 ft | 544 kts | 158° |
| 2026-04-26 18:39 | 33.59750 | 27.52051 | 34994 ft | 544 kts | 158° |
| 2026-04-26 18:39 | 33.52827 | 27.55702 | 34994 ft | 543 kts | 158° |
| 2026-04-26 18:40 | 33.45908 | 27.59343 | 34980 ft | 543 kts | 158° |
| 2026-04-26 18:40 | 33.39037 | 27.62948 | 34991 ft | 542 kts | 158° |
| 2026-04-26 18:41 | 33.32118 | 27.66571 | 34989 ft | 542 kts | 158° |
| 2026-04-26 18:41 | 33.25197 | 27.70191 | 34989 ft | 542 kts | 158° |
| 2026-04-26 18:42 | 33.18275 | 27.73805 | 34983 ft | 543 kts | 159° |
| 2026-04-26 18:42 | 33.11350 | 27.77414 | 34991 ft | 543 kts | 159° |
| 2026-04-26 18:43 | 33.04421 | 27.81019 | 34993 ft | 543 kts | 159° |
| 2026-04-26 18:43 | 32.97531 | 27.84597 | 34989 ft | 544 kts | 159° |
| 2026-04-26 18:44 | 32.90545 | 27.88220 | 34983 ft | 544 kts | 159° |
| 2026-04-26 18:44 | 32.83597 | 27.91815 | 34992 ft | 545 kts | 159° |
| 2026-04-26 18:45 | 32.76680 | 27.95388 | 34992 ft | 545 kts | 159° |
| 2026-04-26 18:45 | 32.69709 | 27.98985 | 34990 ft | 546 kts | 159° |
| 2026-04-26 18:46 | 32.62853 | 28.02515 | 34990 ft | 546 kts | 159° |
| 2026-04-26 18:46 | 32.55878 | 28.06101 | 34992 ft | 546 kts | 159° |
| 2026-04-26 18:47 | 32.48907 | 28.09680 | 34988 ft | 546 kts | 160° |
| 2026-04-26 18:47 | 32.41940 | 28.13250 | 34988 ft | 545 kts | 160° |
| 2026-04-26 18:48 | 32.34968 | 28.16815 | 34986 ft | 545 kts | 160° |
| 2026-04-26 18:48 | 32.28006 | 28.20370 | 34993 ft | 545 kts | 160° |
| 2026-04-26 18:49 | 32.21038 | 28.23922 | 34989 ft | 545 kts | 160° |
| 2026-04-26 18:49 | 32.14110 | 28.27448 | 34992 ft | 546 kts | 160° |
| 2026-04-26 18:50 | 32.07136 | 28.30992 | 34990 ft | 546 kts | 160° |
| 2026-04-26 18:50 | 32.00158 | 28.34531 | 34993 ft | 546 kts | 160° |
| 2026-04-26 18:51 | 31.93192 | 28.38061 | 35000 ft | 545 kts | 161° |
| 2026-04-26 18:51 | 31.86231 | 28.41581 | 34994 ft | 543 kts | 161° |
| 2026-04-26 18:52 | 31.80475 | 28.44474 | 34990 ft | 541 kts | 161° |
| 2026-04-26 18:52 | 31.72388 | 28.48513 | 34987 ft | 539 kts | 162° |
| 2026-04-26 18:53 | 31.65492 | 28.51956 | 34992 ft | 538 kts | 161° |
| 2026-04-26 18:53 | 31.59767 | 28.54812 | 34992 ft | 537 kts | 162° |
| 2026-04-26 18:54 | 31.52893 | 28.58233 | 34982 ft | 537 kts | 162° |
| 2026-04-26 18:54 | 31.46006 | 28.61657 | 35002 ft | 538 kts | 162° |
| 2026-04-26 18:55 | 31.39098 | 28.65086 | 34986 ft | 539 kts | 162° |
| 2026-04-26 18:55 | 31.32175 | 28.68519 | 34988 ft | 540 kts | 162° |
| 2026-04-26 18:56 | 31.25253 | 28.71945 | 34988 ft | 539 kts | 163° |
| 2026-04-26 18:56 | 31.18344 | 28.75361 | 34995 ft | 539 kts | 163° |
| 2026-04-26 18:57 | 31.12608 | 28.78192 | 35000 ft | 538 kts | 163° |
| 2026-04-26 18:57 | 31.04588 | 28.82143 | 35005 ft | 538 kts | 163° |
| 2026-04-26 18:58 | 30.97692 | 28.85536 | 34997 ft | 536 kts | 163° |
| 2026-04-26 18:58 | 30.90814 | 28.88913 | 35007 ft | 536 kts | 163° |
| 2026-04-26 18:59 | 30.83944 | 28.92281 | 35020 ft | 536 kts | 163° |
| 2026-04-26 18:59 | 30.77067 | 28.95647 | 35019 ft | 535 kts | 163° |
| 2026-04-26 19:00 | 30.70207 | 28.99001 | 35019 ft | 533 kts | 165° |
| 2026-04-26 19:00 | 30.63528 | 29.02262 | 35010 ft | 532 kts | 165° |
| 2026-04-26 19:01 | 30.56692 | 29.05594 | 35012 ft | 532 kts | 165° |
| 2026-04-26 19:01 | 30.50114 | 29.09711 | 35013 ft | 545 kts | 152° |
| 2026-04-26 19:02 | 30.44291 | 29.15455 | 34976 ft | 557 kts | 138° |
| 2026-04-26 19:02 | 30.39996 | 29.20958 | 34988 ft | 559 kts | 138° |
| 2026-04-26 19:03 | 30.33670 | 29.28496 | 34984 ft | 558 kts | 141° |
| 2026-04-26 19:03 | 30.28257 | 29.34859 | 34994 ft | 559 kts | 140° |
| 2026-04-26 19:04 | 30.22837 | 29.41338 | 34989 ft | 561 kts | 140° |
| 2026-04-26 19:04 | 30.17385 | 29.47870 | 34989 ft | 561 kts | 140° |
| 2026-04-26 19:05 | 30.09276 | 29.57537 | 34949 ft | 561 kts | 140° |
| 2026-04-26 19:06 | 30.03838 | 29.63997 | 34991 ft | 560 kts | 141° |
| 2026-04-26 19:06 | 29.98397 | 29.70449 | 35109 ft | 564 kts | 141° |
| 2026-04-26 19:06 | 29.95657 | 29.73693 | 35405 ft | 564 kts | 141° |
| 2026-04-26 19:07 | 29.92922 | 29.76933 | 35742 ft | 562 kts | 141° |
| 2026-04-26 19:07 | 29.90196 | 29.80160 | 36092 ft | 561 kts | 141° |
| 2026-04-26 19:07 | 29.87474 | 29.83379 | 36419 ft | 560 kts | 142° |
| 2026-04-26 19:07 | 29.84746 | 29.86601 | 36677 ft | 561 kts | 142° |
| 2026-04-26 19:08 | 29.82053 | 29.89776 | 36893 ft | 562 kts | 142° |
| 2026-04-26 19:08 | 29.76576 | 29.96227 | 36990 ft | 563 kts | 142° |
| 2026-04-26 19:09 | 29.71196 | 30.02560 | 36990 ft | 562 kts | 142° |
| 2026-04-26 19:09 | 29.65732 | 30.08980 | 36990 ft | 560 kts | 142° |
| 2026-04-26 19:10 | 29.60291 | 30.15361 | 36986 ft | 559 kts | 142° |
| 2026-04-26 19:10 | 29.54841 | 30.21739 | 36992 ft | 558 kts | 142° |
| 2026-04-26 19:11 | 29.49416 | 30.28080 | 36995 ft | 558 kts | 142° |
| 2026-04-26 19:11 | 29.43971 | 30.34436 | 36984 ft | 558 kts | 142° |
| 2026-04-26 19:12 | 29.38522 | 30.40793 | 36967 ft | 558 kts | 142° |
| 2026-04-26 19:12 | 29.33160 | 30.47162 | 36993 ft | 559 kts | 141° |
| 2026-04-26 19:13 | 29.27739 | 30.53652 | 36995 ft | 560 kts | 141° |
| 2026-04-26 19:13 | 29.22385 | 30.60036 | 37003 ft | 560 kts | 142° |
| 2026-04-26 19:14 | 29.16935 | 30.66507 | 36997 ft | 561 kts | 142° |
| 2026-04-26 19:14 | 29.11537 | 30.72902 | 37009 ft | 562 kts | 142° |
| 2026-04-26 19:15 | 29.06099 | 30.79334 | 37014 ft | 564 kts | 142° |
| 2026-04-26 19:15 | 29.00641 | 30.85783 | 37002 ft | 564 kts | 142° |
| 2026-04-26 19:16 | 28.95187 | 30.92217 | 37013 ft | 565 kts | 142° |
| 2026-04-26 19:16 | 28.89706 | 30.98673 | 37012 ft | 565 kts | 142° |
| 2026-04-26 19:17 | 28.84351 | 31.04969 | 37020 ft | 565 kts | 142° |
| 2026-04-26 19:17 | 28.78806 | 31.11290 | 37027 ft | 558 kts | 148° |
| 2026-04-26 19:18 | 28.72690 | 31.16584 | 37032 ft | 549 kts | 153° |
| 2026-04-26 19:18 | 28.66437 | 31.21533 | 37025 ft | 547 kts | 154° |
| 2026-04-26 19:19 | 28.60181 | 31.26439 | 37029 ft | 546 kts | 154° |
| 2026-04-26 19:19 | 28.53929 | 31.31345 | 37039 ft | 545 kts | 154° |
| 2026-04-26 19:20 | 28.47691 | 31.36242 | 37044 ft | 545 kts | 154° |
| 2026-04-26 19:20 | 28.41443 | 31.41147 | 37049 ft | 545 kts | 154° |
| 2026-04-26 19:21 | 28.35218 | 31.46039 | 37040 ft | 544 kts | 155° |
| 2026-04-26 19:21 | 28.29002 | 31.50946 | 37048 ft | 544 kts | 154° |
| 2026-04-26 19:22 | 28.22794 | 31.55862 | 37044 ft | 544 kts | 154° |
| 2026-04-26 19:22 | 28.16596 | 31.60787 | 37063 ft | 544 kts | 154° |
| 2026-04-26 19:23 | 28.10401 | 31.65714 | 37060 ft | 544 kts | 154° |
| 2026-04-26 19:23 | 28.04236 | 31.70620 | 37059 ft | 544 kts | 155° |
| 2026-04-26 19:24 | 27.98057 | 31.75556 | 37072 ft | 546 kts | 154° |
| 2026-04-26 19:24 | 27.94987 | 31.78136 | 37141 ft | 557 kts | 148° |
| 2026-04-26 19:24 | 27.89916 | 31.85001 | 37661 ft | 580 kts | 129° |
| 2026-04-26 19:25 | 27.87927 | 31.89007 | 37910 ft | 589 kts | 121° |
| 2026-04-26 19:25 | 27.87366 | 31.90439 | 37973 ft | 591 kts | 118° |
| 2026-04-26 19:25 | 27.84846 | 31.97669 | 38256 ft | 596 kts | 116° |
| 2026-04-26 19:25 | 27.83449 | 32.01846 | 38453 ft | 596 kts | 116° |
| 2026-04-26 19:26 | 27.81982 | 32.06215 | 38782 ft | 593 kts | 116° |
| 2026-04-26 19:26 | 27.80508 | 32.10548 | 39065 ft | 590 kts | 117° |
| 2026-04-26 19:26 | 27.77499 | 32.19167 | 39025 ft | 587 kts | 117° |
| 2026-04-26 19:27 | 27.74916 | 32.27899 | 39029 ft | 585 kts | 112° |
| 2026-04-26 19:27 | 27.72381 | 32.36605 | 39006 ft | 582 kts | 115° |
| 2026-04-26 19:28 | 27.69474 | 32.45107 | 39016 ft | 580 kts | 118° |
| 2026-04-26 19:28 | 27.66378 | 32.53519 | 39000 ft | 581 kts | 119° |
| 2026-04-26 19:29 | 27.63285 | 32.61894 | 39002 ft | 582 kts | 118° |
| 2026-04-26 19:29 | 27.60182 | 32.70406 | 38988 ft | 584 kts | 118° |
| 2026-04-26 19:30 | 27.57105 | 32.78896 | 38990 ft | 586 kts | 118° |
| 2026-04-26 19:30 | 27.54545 | 32.85945 | 38983 ft | 587 kts | 118° |
| 2026-04-26 19:31 | 27.50934 | 32.95851 | 38965 ft | 588 kts | 118° |
| 2026-04-26 19:31 | 27.47860 | 33.04253 | 38968 ft | 589 kts | 118° |
| 2026-04-26 19:32 | 27.44734 | 33.12768 | 38960 ft | 589 kts | 118° |
| 2026-04-26 19:32 | 27.41611 | 33.21284 | 38917 ft | 588 kts | 118° |
| 2026-04-26 19:33 | 27.38485 | 33.29787 | 38946 ft | 587 kts | 118° |
| 2026-04-26 19:33 | 27.35354 | 33.38269 | 38949 ft | 587 kts | 118° |
| 2026-04-26 19:34 | 27.32231 | 33.46710 | 38945 ft | 587 kts | 119° |
| 2026-04-26 19:34 | 27.29091 | 33.55181 | 38938 ft | 588 kts | 119° |
| 2026-04-26 19:35 | 27.25938 | 33.63670 | 38936 ft | 588 kts | 119° |
| 2026-04-26 19:35 | 27.22785 | 33.72140 | 38917 ft | 587 kts | 119° |
| 2026-04-26 19:36 | 27.20673 | 33.77806 | 38935 ft | 587 kts | 119° |
| 2026-04-26 19:36 | 27.16468 | 33.89058 | 38940 ft | 587 kts | 119° |
| 2026-04-26 19:37 | 27.13880 | 33.95968 | 38901 ft | 586 kts | 119° |
| 2026-04-26 19:37 | 27.10768 | 34.04260 | 38917 ft | 585 kts | 119° |
| 2026-04-26 19:38 | 27.07602 | 34.12677 | 38923 ft | 585 kts | 119° |
| 2026-04-26 19:38 | 27.04431 | 34.21090 | 38903 ft | 585 kts | 119° |
| 2026-04-26 19:39 | 27.01261 | 34.29482 | 38907 ft | 585 kts | 119° |
| 2026-04-26 19:39 | 26.98087 | 34.37869 | 38911 ft | 584 kts | 119° |
| 2026-04-26 19:40 | 26.94906 | 34.46254 | 38911 ft | 584 kts | 119° |
| 2026-04-26 19:40 | 26.91723 | 34.54627 | 38896 ft | 584 kts | 120° |
| 2026-04-26 19:41 | 26.88535 | 34.62997 | 38903 ft | 583 kts | 120° |
| 2026-04-26 19:41 | 26.85886 | 34.69939 | 38908 ft | 583 kts | 120° |
| 2026-04-26 19:42 | 26.82153 | 34.79700 | 38907 ft | 583 kts | 120° |
| 2026-04-26 19:42 | 26.78954 | 34.88047 | 38910 ft | 583 kts | 120° |
| 2026-04-26 19:43 | 26.75781 | 34.96350 | 38910 ft | 584 kts | 119° |
| 2026-04-26 19:43 | 26.72750 | 35.04616 | 38900 ft | 584 kts | 118° |
| 2026-04-26 19:44 | 26.69691 | 35.13052 | 38910 ft | 584 kts | 118° |
| 2026-04-26 19:44 | 26.66613 | 35.21460 | 38908 ft | 584 kts | 118° |
| 2026-04-26 19:45 | 26.63516 | 35.29857 | 38899 ft | 584 kts | 118° |
| 2026-04-26 19:45 | 26.60416 | 35.38250 | 38902 ft | 584 kts | 119° |
| 2026-04-26 19:46 | 26.57332 | 35.46591 | 38898 ft | 584 kts | 119° |
| 2026-04-26 19:46 | 26.54195 | 35.54946 | 38890 ft | 583 kts | 119° |
| 2026-04-26 19:47 | 26.51539 | 35.61861 | 38891 ft | 582 kts | 120° |
| 2026-04-26 19:47 | 26.47799 | 35.71566 | 38882 ft | 582 kts | 120° |
| 2026-04-26 19:48 | 26.44604 | 35.79878 | 38853 ft | 582 kts | 119° |
| 2026-04-26 19:48 | 26.41440 | 35.88109 | 38868 ft | 581 kts | 119° |
| 2026-04-26 19:49 | 26.38248 | 35.96395 | 38869 ft | 581 kts | 119° |
| 2026-04-26 19:49 | 26.35101 | 36.04543 | 38872 ft | 581 kts | 119° |
| 2026-04-26 19:50 | 26.31902 | 36.12808 | 38871 ft | 581 kts | 119° |
| 2026-04-26 19:50 | 26.28694 | 36.21079 | 38873 ft | 581 kts | 119° |
| 2026-04-26 19:51 | 26.25479 | 36.29356 | 38872 ft | 581 kts | 119° |
| 2026-04-26 19:51 | 26.22265 | 36.37610 | 38884 ft | 581 kts | 119° |
| 2026-04-26 19:52 | 26.19044 | 36.45871 | 38881 ft | 581 kts | 119° |
| 2026-04-26 19:52 | 26.15514 | 36.53912 | 38896 ft | 575 kts | 125° |
| 2026-04-26 19:53 | 26.11629 | 36.61700 | 38841 ft | 575 kts | 126° |
| 2026-04-26 19:53 | 26.07728 | 36.69480 | 38865 ft | 576 kts | 126° |
| 2026-04-26 19:54 | 26.03859 | 36.77292 | 38851 ft | 576 kts | 125° |
| 2026-04-26 19:54 | 26.00006 | 36.85109 | 38866 ft | 576 kts | 125° |
| 2026-04-26 19:55 | 25.96185 | 36.92843 | 38869 ft | 575 kts | 125° |
| 2026-04-26 19:55 | 25.92399 | 37.00478 | 38868 ft | 575 kts | 126° |
| 2026-04-26 19:56 | 25.88540 | 37.08248 | 38882 ft | 573 kts | 126° |
| 2026-04-26 19:56 | 25.84685 | 37.15999 | 38889 ft | 573 kts | 126° |
| 2026-04-26 19:57 | 25.80828 | 37.23741 | 38885 ft | 572 kts | 126° |
| 2026-04-26 19:57 | 25.76987 | 37.31448 | 38895 ft | 570 kts | 126° |
| 2026-04-26 19:58 | 25.73174 | 37.39102 | 38882 ft | 569 kts | 126° |
| 2026-04-26 19:58 | 25.69348 | 37.46774 | 38916 ft | 567 kts | 126° |
| 2026-04-26 19:59 | 25.65530 | 37.54414 | 38924 ft | 566 kts | 126° |
| 2026-04-26 19:59 | 25.61717 | 37.62035 | 38924 ft | 564 kts | 126° |
| 2026-04-26 20:00 | 25.57904 | 37.69633 | 38939 ft | 564 kts | 126° |
| 2026-04-26 20:00 | 25.54095 | 37.77207 | 38930 ft | 563 kts | 126° |
| 2026-04-26 20:01 | 25.50286 | 37.84778 | 38918 ft | 562 kts | 126° |
| 2026-04-26 20:01 | 25.46478 | 37.92335 | 38913 ft | 561 kts | 126° |
| 2026-04-26 20:02 | 25.42670 | 37.99878 | 38905 ft | 561 kts | 126° |
| 2026-04-26 20:02 | 25.39569 | 38.06011 | 38911 ft | 561 kts | 126° |
| 2026-04-26 20:03 | 25.35135 | 38.14768 | 38915 ft | 560 kts | 126° |
| 2026-04-26 20:03 | 25.31317 | 38.22293 | 38901 ft | 560 kts | 126° |
| 2026-04-26 20:04 | 25.27499 | 38.29806 | 38903 ft | 561 kts | 126° |
| 2026-04-26 20:04 | 25.23681 | 38.37315 | 38912 ft | 561 kts | 126° |
| 2026-04-26 20:05 | 25.19853 | 38.44819 | 38920 ft | 560 kts | 126° |
| 2026-04-26 20:05 | 25.16025 | 38.52318 | 38932 ft | 561 kts | 126° |
| 2026-04-26 20:06 | 25.12185 | 38.59829 | 38928 ft | 562 kts | 126° |
| 2026-04-26 20:06 | 25.08345 | 38.67336 | 38926 ft | 562 kts | 125° |
| 2026-04-26 20:07 | 25.04498 | 38.74840 | 38925 ft | 561 kts | 125° |
| 2026-04-26 20:07 | 25.00684 | 38.82277 | 38935 ft | 560 kts | 125° |
| 2026-04-26 20:08 | 24.96851 | 38.89733 | 38922 ft | 559 kts | 125° |
| 2026-04-26 20:08 | 24.93013 | 38.97160 | 38938 ft | 557 kts | 126° |
| 2026-04-26 20:09 | 24.89228 | 39.04438 | 38951 ft | 556 kts | 126° |
| 2026-04-26 20:09 | 24.85383 | 39.11829 | 38952 ft | 555 kts | 126° |
| 2026-04-26 20:10 | 24.81547 | 39.19199 | 38955 ft | 555 kts | 126° |
| 2026-04-26 20:10 | 24.77705 | 39.26567 | 38956 ft | 555 kts | 126° |
| 2026-04-26 20:11 | 24.73863 | 39.33930 | 38960 ft | 556 kts | 125° |
| 2026-04-26 20:12 | 24.68076 | 39.45003 | 38961 ft | 556 kts | 125° |
| 2026-04-26 20:12 | 24.64267 | 39.52279 | 38973 ft | 556 kts | 126° |
| 2026-04-26 20:13 | 24.60401 | 39.59652 | 38977 ft | 556 kts | 126° |
| 2026-04-26 20:13 | 24.56709 | 39.67113 | 38989 ft | 561 kts | 117° |
| 2026-04-26 20:14 | 24.54284 | 39.75320 | 38990 ft | 569 kts | 105° |
| 2026-04-26 20:14 | 24.53229 | 39.83964 | 38991 ft | 572 kts | 97° |
| 2026-04-26 20:15 | 24.52513 | 39.92684 | 38981 ft | 572 kts | 97° |
| 2026-04-26 20:15 | 24.51757 | 40.01241 | 38976 ft | 572 kts | 98° |
| 2026-04-26 20:16 | 24.50922 | 40.09873 | 38970 ft | 572 kts | 98° |
| 2026-04-26 20:16 | 24.50062 | 40.18559 | 38967 ft | 572 kts | 98° |
| 2026-04-26 20:17 | 24.49203 | 40.27245 | 38962 ft | 572 kts | 98° |
| 2026-04-26 20:17 | 24.48347 | 40.35913 | 38966 ft | 571 kts | 98° |
| 2026-04-26 20:18 | 24.47486 | 40.44585 | 38966 ft | 571 kts | 98° |
| 2026-04-26 20:18 | 24.45760 | 40.61799 | 38969 ft | 569 kts | 98° |
| 2026-04-26 20:19 | 24.42277 | 40.96286 | 38967 ft | 568 kts | 98° |
| 2026-04-26 20:19 | 24.38730 | 41.30222 | 38975 ft | 567 kts | 98° |
| 2026-04-26 20:20 | 24.35040 | 41.64606 | 38990 ft | 567 kts | 98° |
| 2026-04-26 20:20 | 24.30290 | 41.98682 | 39031 ft | 565 kts | 97° |
| 2026-04-26 20:21 | 24.26689 | 42.32408 | 39009 ft | 566 kts | 98° |
| 2026-04-26 20:21 | 24.22767 | 42.66696 | 39028 ft | 566 kts | 98° |
| 2026-04-26 20:22 | 24.19468 | 42.95069 | 39021 ft | 567 kts | 98° |
| 2026-04-26 20:22 | 24.14810 | 43.34367 | 39038 ft | 567 kts | 98° |
| 2026-04-26 20:23 | 24.10673 | 43.68546 | 39045 ft | 565 kts | 98° |
| 2026-04-26 20:23 | 24.07159 | 43.97080 | 38999 ft | 565 kts | 98° |
| 2026-04-26 20:24 | 24.02995 | 44.30334 | 39013 ft | 563 kts | 98° |
| 2026-04-26 20:24 | 23.98687 | 44.64131 | 38995 ft | 561 kts | 98° |
| 2026-04-26 20:25 | 23.94310 | 44.97864 | 38996 ft | 561 kts | 99° |
| 2026-04-26 20:25 | 23.89919 | 45.31122 | 38989 ft | 561 kts | 98° |
| 2026-04-26 20:26 | 23.85393 | 45.64834 | 38983 ft | 560 kts | 98° |
| 2026-04-26 20:26 | 23.80798 | 45.98488 | 38987 ft | 560 kts | 98° |
| 2026-04-26 20:27 | 23.77064 | 46.25432 | 39001 ft | 558 kts | 99° |
| 2026-04-26 20:27 | 23.75900 | 46.33771 | 39001 ft | 558 kts | 99° |
| 2026-04-26 20:28 | 23.74725 | 46.42136 | 39004 ft | 557 kts | 99° |
| 2026-04-26 20:28 | 23.73546 | 46.50500 | 39000 ft | 557 kts | 99° |
| 2026-04-26 20:29 | 23.72364 | 46.58852 | 38997 ft | 556 kts | 99° |
| 2026-04-26 20:29 | 23.71183 | 46.67173 | 38994 ft | 556 kts | 99° |
| 2026-04-26 20:30 | 23.70001 | 46.75461 | 38986 ft | 556 kts | 99° |
| 2026-04-26 20:30 | 23.68808 | 46.83792 | 38986 ft | 555 kts | 99° |
| 2026-04-26 20:31 | 23.67611 | 46.92128 | 38982 ft | 556 kts | 99° |
| 2026-04-26 20:31 | 23.66431 | 47.00307 | 38976 ft | 555 kts | 99° |
| 2026-04-26 20:32 | 23.65227 | 47.08618 | 38969 ft | 555 kts | 99° |
| 2026-04-26 20:32 | 23.64018 | 47.16936 | 38967 ft | 555 kts | 99° |
| 2026-04-26 20:33 | 23.62813 | 47.25193 | 38962 ft | 554 kts | 99° |
| 2026-04-26 20:33 | 23.61598 | 47.33490 | 38962 ft | 554 kts | 99° |
| 2026-04-26 20:34 | 23.60379 | 47.41780 | 38958 ft | 554 kts | 99° |
| 2026-04-26 20:34 | 23.59155 | 47.50072 | 38956 ft | 554 kts | 99° |
| 2026-04-26 20:35 | 23.57926 | 47.58362 | 38956 ft | 553 kts | 99° |
| 2026-04-26 20:35 | 23.56693 | 47.66654 | 38949 ft | 553 kts | 99° |
| 2026-04-26 20:36 | 23.55457 | 47.74938 | 38946 ft | 553 kts | 99° |
| 2026-04-26 20:36 | 23.54218 | 47.83203 | 38950 ft | 554 kts | 99° |
| 2026-04-26 20:37 | 23.52979 | 47.91444 | 38943 ft | 555 kts | 99° |
| 2026-04-26 20:37 | 23.51727 | 47.99739 | 38931 ft | 554 kts | 99° |
| 2026-04-26 20:38 | 23.50493 | 48.07882 | 38930 ft | 555 kts | 99° |
| 2026-04-26 20:38 | 23.49233 | 48.16171 | 38922 ft | 555 kts | 99° |
| 2026-04-26 20:39 | 23.47967 | 48.24464 | 38922 ft | 555 kts | 99° |
| 2026-04-26 20:39 | 23.46697 | 48.32756 | 38914 ft | 555 kts | 99° |
| 2026-04-26 20:40 | 23.45423 | 48.41046 | 38913 ft | 555 kts | 99° |
| 2026-04-26 20:40 | 23.44142 | 48.49348 | 38909 ft | 554 kts | 99° |
| 2026-04-26 20:41 | 23.42863 | 48.57608 | 38915 ft | 553 kts | 99° |
| 2026-04-26 20:41 | 23.41580 | 48.65862 | 38904 ft | 552 kts | 99° |
| 2026-04-26 20:42 | 23.40296 | 48.74098 | 38902 ft | 552 kts | 99° |
| 2026-04-26 20:42 | 23.39007 | 48.82331 | 38908 ft | 551 kts | 99° |
| 2026-04-26 20:43 | 23.37716 | 48.90556 | 38907 ft | 551 kts | 99° |
| 2026-04-26 20:43 | 23.36423 | 48.98763 | 38904 ft | 550 kts | 99° |
| 2026-04-26 20:44 | 23.35154 | 49.06794 | 38901 ft | 550 kts | 99° |
| 2026-04-26 20:44 | 23.33936 | 49.15003 | 38895 ft | 549 kts | 98° |
| 2026-04-26 20:45 | 23.32780 | 49.23218 | 38895 ft | 549 kts | 98° |
| 2026-04-26 20:45 | 23.31617 | 49.31428 | 38902 ft | 549 kts | 98° |
| 2026-04-26 20:46 | 23.30432 | 49.39652 | 38890 ft | 550 kts | 98° |
| 2026-04-26 20:46 | 23.29236 | 49.47878 | 38886 ft | 550 kts | 98° |
| 2026-04-26 20:47 | 23.28035 | 49.56097 | 38891 ft | 550 kts | 98° |
| 2026-04-26 20:47 | 23.26832 | 49.64315 | 38891 ft | 550 kts | 98° |
| 2026-04-26 20:48 | 23.25625 | 49.72534 | 38900 ft | 550 kts | 98° |
| 2026-04-26 20:48 | 23.24413 | 49.80753 | 38900 ft | 551 kts | 98° |
| 2026-04-26 20:49 | 23.23197 | 49.88976 | 38900 ft | 551 kts | 98° |
| 2026-04-26 20:49 | 23.21974 | 49.97205 | 38898 ft | 551 kts | 98° |
| 2026-04-26 20:50 | 23.20774 | 50.05255 | 38891 ft | 551 kts | 98° |
| 2026-04-26 20:50 | 23.19544 | 50.13479 | 38891 ft | 551 kts | 98° |
| 2026-04-26 20:51 | 23.18307 | 50.21710 | 38899 ft | 551 kts | 98° |
| 2026-04-26 20:51 | 23.17069 | 50.29929 | 38897 ft | 552 kts | 98° |
| 2026-04-26 20:52 | 23.15825 | 50.38156 | 38894 ft | 552 kts | 98° |
| 2026-04-26 20:52 | 23.14575 | 50.46386 | 38896 ft | 552 kts | 98° |
| 2026-04-26 20:53 | 23.13322 | 50.54611 | 38878 ft | 552 kts | 98° |
| 2026-04-26 20:53 | 23.12064 | 50.62836 | 38888 ft | 551 kts | 98° |
| 2026-04-26 20:54 | 23.10804 | 50.71051 | 38887 ft | 551 kts | 98° |
| 2026-04-26 20:54 | 23.09540 | 50.79258 | 38885 ft | 551 kts | 98° |
| 2026-04-26 20:55 | 23.08274 | 50.87451 | 38893 ft | 550 kts | 98° |
| 2026-04-26 20:55 | 23.07010 | 50.95601 | 38890 ft | 550 kts | 98° |
| 2026-04-26 20:56 | 23.05757 | 51.03658 | 38885 ft | 550 kts | 98° |
| 2026-04-26 20:56 | 23.04477 | 51.11852 | 38860 ft | 550 kts | 98° |
| 2026-04-26 20:57 | 23.03194 | 51.20035 | 38878 ft | 548 kts | 98° |
| 2026-04-26 20:57 | 23.01912 | 51.28191 | 38882 ft | 547 kts | 98° |
| 2026-04-26 20:58 | 23.00630 | 51.36319 | 38878 ft | 547 kts | 98° |
| 2026-04-26 20:58 | 22.99347 | 51.44422 | 38878 ft | 546 kts | 98° |
| 2026-04-26 20:59 | 22.98056 | 51.52544 | 38873 ft | 546 kts | 98° |
| 2026-04-26 20:59 | 22.96762 | 51.60663 | 38873 ft | 546 kts | 98° |
| 2026-04-26 21:00 | 22.95463 | 51.68784 | 38872 ft | 546 kts | 98° |
| 2026-04-26 21:00 | 22.94163 | 51.76888 | 38878 ft | 546 kts | 99° |
| 2026-04-26 21:01 | 22.92864 | 51.84955 | 38877 ft | 546 kts | 99° |
| 2026-04-26 21:01 | 22.91552 | 51.93073 | 38866 ft | 546 kts | 99° |
| 2026-04-26 21:02 | 22.90256 | 52.01069 | 38865 ft | 547 kts | 99° |
| 2026-04-26 21:02 | 22.88934 | 52.09198 | 38870 ft | 547 kts | 99° |
| 2026-04-26 21:03 | 22.87608 | 52.17331 | 38866 ft | 548 kts | 99° |
| 2026-04-26 21:03 | 22.86274 | 52.25475 | 38866 ft | 548 kts | 99° |
| 2026-04-26 21:04 | 22.84948 | 52.33553 | 38875 ft | 547 kts | 99° |
| 2026-04-26 21:04 | 22.83612 | 52.41665 | 38869 ft | 546 kts | 99° |
| 2026-04-26 21:05 | 22.82388 | 52.49777 | 38875 ft | 544 kts | 94° |
| 2026-04-26 21:05 | 22.82054 | 52.57954 | 38865 ft | 542 kts | 89° |
| 2026-04-26 21:06 | 22.81924 | 52.66115 | 38869 ft | 541 kts | 89° |
| 2026-04-26 21:06 | 22.81761 | 52.74257 | 38863 ft | 541 kts | 89° |
| 2026-04-26 21:07 | 22.81553 | 52.82413 | 38865 ft | 541 kts | 89° |
| 2026-04-26 21:07 | 22.81367 | 52.89178 | 38865 ft | 540 kts | 89° |
| 2026-04-26 21:08 | 22.81140 | 52.97323 | 38861 ft | 540 kts | 89° |
| 2026-04-26 21:08 | 22.80916 | 53.05328 | 38868 ft | 539 kts | 89° |
| 2026-04-26 21:09 | 22.80686 | 53.13449 | 38861 ft | 539 kts | 89° |
| 2026-04-26 21:09 | 22.80453 | 53.21562 | 38866 ft | 538 kts | 89° |
| 2026-04-26 21:10 | 22.80218 | 53.29608 | 38864 ft | 537 kts | 89° |
| 2026-04-26 21:10 | 22.79976 | 53.37707 | 38854 ft | 537 kts | 89° |
| 2026-04-26 21:11 | 22.79731 | 53.45802 | 38876 ft | 537 kts | 89° |
| 2026-04-26 21:11 | 22.79481 | 53.53888 | 38868 ft | 537 kts | 89° |
| 2026-04-26 21:12 | 22.79228 | 53.61976 | 38860 ft | 537 kts | 89° |
| 2026-04-26 21:12 | 22.78971 | 53.70068 | 38860 ft | 537 kts | 90° |
| 2026-04-26 21:13 | 22.78710 | 53.78159 | 38859 ft | 537 kts | 89° |
| 2026-04-26 21:13 | 22.78444 | 53.86252 | 38859 ft | 537 kts | 90° |
| 2026-04-26 21:14 | 22.78176 | 53.94340 | 38860 ft | 536 kts | 89° |
| 2026-04-26 21:14 | 22.78556 | 54.02221 | 38859 ft | 531 kts | 79° |
| 2026-04-26 21:15 | 22.80026 | 54.10022 | 38859 ft | 527 kts | 73° |
| 2026-04-26 21:15 | 22.81662 | 54.17704 | 38853 ft | 527 kts | 73° |
| 2026-04-26 21:16 | 22.83273 | 54.25456 | 38846 ft | 527 kts | 74° |
| 2026-04-26 21:16 | 22.84843 | 54.33209 | 38855 ft | 526 kts | 74° |
| 2026-04-26 21:17 | 22.86397 | 54.40954 | 38851 ft | 526 kts | 74° |
| 2026-04-26 21:17 | 22.87951 | 54.48703 | 38851 ft | 526 kts | 74° |
| 2026-04-26 21:18 | 22.89502 | 54.56445 | 38855 ft | 525 kts | 74° |
| 2026-04-26 21:18 | 22.91050 | 54.64193 | 38850 ft | 525 kts | 74° |
| 2026-04-26 21:19 | 22.92598 | 54.71959 | 38853 ft | 526 kts | 74° |
| 2026-04-26 21:19 | 22.94139 | 54.79713 | 38851 ft | 526 kts | 74° |
| 2026-04-26 21:20 | 22.95669 | 54.87431 | 38848 ft | 526 kts | 74° |
| 2026-04-26 21:20 | 22.97205 | 54.95201 | 38854 ft | 526 kts | 74° |
| 2026-04-26 21:21 | 22.98710 | 55.02835 | 38858 ft | 527 kts | 74° |
| 2026-04-26 21:21 | 23.00239 | 55.10612 | 38860 ft | 527 kts | 74° |
| 2026-04-26 21:22 | 23.02070 | 55.18257 | 38856 ft | 516 kts | 60° |
| 2026-04-26 21:22 | 23.03970 | 55.21497 | 38867 ft | 504 kts | 43° |
| 2026-04-26 21:22 | 23.06501 | 55.24067 | 38880 ft | 494 kts | 31° |
| 2026-04-26 21:23 | 23.12525 | 55.27255 | 38875 ft | 475 kts | 9° |
| 2026-04-26 21:23 | 23.15730 | 55.28138 | 38887 ft | 476 kts | 8° |
| 2026-04-26 21:23 | 23.22170 | 55.29889 | 38884 ft | 479 kts | 9° |
| 2026-04-26 21:24 | 23.28586 | 55.31723 | 38880 ft | 481 kts | 9° |
| 2026-04-26 21:24 | 23.35070 | 55.33629 | 38876 ft | 483 kts | 10° |
| 2026-04-26 21:25 | 23.41557 | 55.35543 | 38879 ft | 483 kts | 9° |
| 2026-04-26 21:25 | 23.48038 | 55.37452 | 38876 ft | 474 kts | 9° |
| 2026-04-26 21:26 | 23.51176 | 55.38381 | 38870 ft | 461 kts | 9° |
| 2026-04-26 21:26 | 23.54242 | 55.39288 | 38876 ft | 455 kts | 9° |
| 2026-04-26 21:26 | 23.60348 | 55.41098 | 38891 ft | 454 kts | 9° |
| 2026-04-26 21:27 | 23.66446 | 55.42910 | 38895 ft | 454 kts | 9° |
| 2026-04-26 21:27 | 23.72505 | 55.44714 | 38897 ft | 454 kts | 9° |
| 2026-04-26 21:28 | 23.78610 | 55.46533 | 38896 ft | 454 kts | 9° |
| 2026-04-26 21:28 | 23.84706 | 55.48352 | 38905 ft | 455 kts | 9° |
| 2026-04-26 21:29 | 23.90822 | 55.50171 | 38902 ft | 455 kts | 9° |
| 2026-04-26 21:29 | 23.96935 | 55.52018 | 38904 ft | 458 kts | 12° |
| 2026-04-26 21:30 | 24.02670 | 55.55093 | 38919 ft | 471 kts | 27° |
| 2026-04-26 21:30 | 24.07800 | 55.59689 | 38916 ft | 480 kts | 36° |
| 2026-04-26 21:31 | 24.12704 | 55.64683 | 38913 ft | 481 kts | 37° |
| 2026-04-26 21:31 | 24.17628 | 55.69650 | 38913 ft | 481 kts | 36° |
| 2026-04-26 21:32 | 24.22586 | 55.74579 | 38913 ft | 481 kts | 36° |
| 2026-04-26 21:32 | 24.27544 | 55.79495 | 38925 ft | 480 kts | 36° |
| 2026-04-26 21:33 | 24.32496 | 55.84416 | 38921 ft | 481 kts | 36° |
| 2026-04-26 21:33 | 24.37452 | 55.89348 | 38910 ft | 481 kts | 36° |
| 2026-04-26 21:34 | 24.42406 | 55.94293 | 38930 ft | 481 kts | 36° |
| 2026-04-26 21:34 | 24.47336 | 55.99225 | 38932 ft | 482 kts | 36° |
| 2026-04-26 21:35 | 24.52210 | 56.04105 | 38908 ft | 482 kts | 36° |
| 2026-04-26 21:35 | 24.57194 | 56.09048 | 38894 ft | 479 kts | 32° |
| 2026-04-26 21:36 | 24.59931 | 56.11048 | 38903 ft | 467 kts | 21° |
| 2026-04-26 21:36 | 24.61858 | 56.12052 | 38900 ft | 462 kts | 15° |
| 2026-04-26 21:36 | 24.65937 | 56.13377 | 38887 ft | 450 kts | 2° |
| 2026-04-26 21:36 | 24.69029 | 56.13879 | 38894 ft | 449 kts | 1° |
| 2026-04-26 21:37 | 24.75184 | 56.14915 | 38864 ft | 448 kts | 1° |
| 2026-04-26 21:37 | 24.78244 | 56.15099 | 38892 ft | 436 kts | 350° |
| 2026-04-26 21:37 | 24.81216 | 56.14609 | 38855 ft | 428 kts | 339° |
| 2026-04-26 21:38 | 24.86650 | 56.12148 | 38880 ft | 421 kts | 330° |
| 2026-04-26 21:38 | 24.91994 | 56.09438 | 38876 ft | 424 kts | 331° |
| 2026-04-26 21:39 | 24.97396 | 56.06754 | 38870 ft | 427 kts | 330° |
| 2026-04-26 21:39 | 25.02798 | 56.04060 | 38868 ft | 429 kts | 330° |
| 2026-04-26 21:40 | 25.08204 | 56.01361 | 38860 ft | 430 kts | 330° |
| 2026-04-26 21:40 | 25.13650 | 55.98640 | 38858 ft | 429 kts | 330° |
| 2026-04-26 21:41 | 25.19080 | 55.95928 | 38865 ft | 427 kts | 330° |
| 2026-04-26 21:41 | 25.21758 | 55.94595 | 38844 ft | 416 kts | 330° |
| 2026-04-26 21:41 | 25.24364 | 55.93306 | 38840 ft | 408 kts | 330° |
| 2026-04-26 21:42 | 25.29548 | 55.90746 | 38854 ft | 409 kts | 330° |
| 2026-04-26 21:42 | 25.34745 | 55.88178 | 38848 ft | 409 kts | 330° |
| 2026-04-26 21:43 | 25.39941 | 55.85611 | 38846 ft | 409 kts | 330° |
| 2026-04-26 21:43 | 25.45146 | 55.83037 | 38835 ft | 410 kts | 330° |
| 2026-04-26 21:44 | 25.50358 | 55.80459 | 38837 ft | 410 kts | 330° |
| 2026-04-26 21:44 | 25.52806 | 55.79247 | 38827 ft | 410 kts | 330° |
| 2026-04-26 21:51 | 25.56385 | 55.77370 | 38807 ft | 405 kts | 324° |
| 2026-04-26 21:52 | 25.58683 | 55.75570 | 38557 ft | 395 kts | 314° |
| 2026-04-26 21:52 | 25.60547 | 55.73431 | 38083 ft | 388 kts | 305° |
| 2026-04-26 21:52 | 25.62003 | 55.70939 | 37547 ft | 383 kts | 295° |
| 2026-04-26 21:52 | 25.62971 | 55.68213 | 37048 ft | 379 kts | 285° |
| 2026-04-26 21:53 | 25.63425 | 55.65357 | 36556 ft | 377 kts | 275° |
| 2026-04-26 21:53 | 25.63353 | 55.62452 | 36093 ft | 378 kts | 264° |
| 2026-04-26 21:53 | 25.62758 | 55.59618 | 35641 ft | 380 kts | 255° |
| 2026-04-26 21:53 | 25.61659 | 55.56952 | 35198 ft | 384 kts | 244° |
| 2026-04-26 21:54 | 25.60086 | 55.54542 | 34773 ft | 389 kts | 234° |
| 2026-04-26 21:54 | 25.58096 | 55.52489 | 34344 ft | 395 kts | 223° |
| 2026-04-26 21:54 | 25.56537 | 55.51336 | 34080 ft | 400 kts | 216° |
| 2026-04-26 21:54 | 25.53991 | 55.50044 | 33646 ft | 406 kts | 206° |
| 2026-04-26 21:55 | 25.51264 | 55.49289 | 33212 ft | 413 kts | 195° |
| 2026-04-26 21:55 | 25.48387 | 55.49091 | 32820 ft | 418 kts | 184° |
| 2026-04-26 21:55 | 25.45502 | 55.49471 | 32443 ft | 423 kts | 174° |
| 2026-04-26 21:55 | 25.42669 | 55.50431 | 32058 ft | 428 kts | 163° |
| 2026-04-26 21:56 | 25.40005 | 55.51900 | 31695 ft | 430 kts | 155° |
| 2026-04-26 21:56 | 25.37443 | 55.53609 | 31336 ft | 428 kts | 153° |
| 2026-04-26 21:56 | 25.34950 | 55.55362 | 31000 ft | 424 kts | 153° |
| 2026-04-26 21:56 | 25.32473 | 55.57130 | 30651 ft | 421 kts | 152° |
| 2026-04-26 21:57 | 25.30027 | 55.58888 | 30305 ft | 418 kts | 152° |
| 2026-04-26 21:57 | 25.27608 | 55.60635 | 29985 ft | 414 kts | 152° |
| 2026-04-26 21:57 | 25.25203 | 55.62381 | 29603 ft | 410 kts | 152° |
| 2026-04-26 21:57 | 25.22828 | 55.64110 | 29188 ft | 407 kts | 152° |
| 2026-04-26 21:58 | 25.20473 | 55.65828 | 28782 ft | 405 kts | 152° |
| 2026-04-26 21:58 | 25.18139 | 55.67534 | 28367 ft | 402 kts | 152° |
| 2026-04-26 21:58 | 25.15822 | 55.69228 | 27992 ft | 399 kts | 152° |
| 2026-04-26 21:58 | 25.13522 | 55.70911 | 27638 ft | 396 kts | 152° |
| 2026-04-26 21:59 | 25.11245 | 55.72581 | 27427 ft | 388 kts | 152° |
| 2026-04-26 21:59 | 25.09019 | 55.74219 | 27249 ft | 379 kts | 152° |
| 2026-04-26 21:59 | 25.06841 | 55.75819 | 27051 ft | 372 kts | 152° |
| 2026-04-26 21:59 | 25.04701 | 55.77389 | 26748 ft | 369 kts | 152° |
| 2026-04-26 22:00 | 25.02565 | 55.78952 | 26346 ft | 368 kts | 152° |
| 2026-04-26 22:00 | 25.00461 | 55.80493 | 26007 ft | 366 kts | 152° |
| 2026-04-26 22:00 | 24.98351 | 55.82040 | 25688 ft | 363 kts | 152° |
| 2026-04-26 22:00 | 24.96256 | 55.83575 | 25371 ft | 361 kts | 152° |
| 2026-04-26 22:01 | 24.94243 | 55.85208 | 24987 ft | 363 kts | 140° |
| 2026-04-26 22:01 | 24.92719 | 55.87432 | 24506 ft | 367 kts | 119° |
| 2026-04-26 22:01 | 24.91935 | 55.90109 | 23897 ft | 369 kts | 100° |
| 2026-04-26 22:01 | 24.91688 | 55.92923 | 23279 ft | 368 kts | 94° |
| 2026-04-26 22:02 | 24.91593 | 55.95737 | 22599 ft | 366 kts | 92° |
| 2026-04-26 22:02 | 24.91539 | 55.98529 | 21997 ft | 362 kts | 92° |
| 2026-04-26 22:02 | 24.91498 | 56.01282 | 21387 ft | 357 kts | 92° |
| 2026-04-26 22:02 | 24.91465 | 56.04003 | 20799 ft | 353 kts | 92° |
| 2026-04-26 22:03 | 24.91438 | 56.06698 | 20199 ft | 349 kts | 92° |
| 2026-04-26 22:03 | 24.91414 | 56.09359 | 19619 ft | 346 kts | 92° |
| 2026-04-26 22:03 | 24.91395 | 56.11995 | 19048 ft | 342 kts | 92° |
| 2026-04-26 22:03 | 24.91383 | 56.14601 | 18491 ft | 339 kts | 92° |
| 2026-04-26 22:04 | 24.91377 | 56.17173 | 17915 ft | 335 kts | 92° |
| 2026-04-26 22:04 | 24.91590 | 56.19681 | 17283 ft | 333 kts | 73° |
| 2026-04-26 22:04 | 24.92616 | 56.21921 | 16694 ft | 326 kts | 49° |
| 2026-04-26 22:04 | 24.94310 | 56.23494 | 16110 ft | 315 kts | 24° |
| 2026-04-26 22:05 | 24.96361 | 56.24167 | 15489 ft | 303 kts | 359° |
| 2026-04-26 22:05 | 24.98393 | 56.23847 | 14857 ft | 291 kts | 334° |
| 2026-04-26 22:05 | 25.00052 | 56.22663 | 14289 ft | 281 kts | 310° |
| 2026-04-26 22:05 | 25.01177 | 56.20946 | 13701 ft | 275 kts | 294° |
| 2026-04-26 22:06 | 25.01747 | 56.18955 | 13006 ft | 272 kts | 280° |
| 2026-04-26 22:06 | 25.02078 | 56.16885 | 12544 ft | 274 kts | 279° |
| 2026-04-26 22:06 | 25.02378 | 56.14835 | 12268 ft | 268 kts | 278° |
| 2026-04-26 22:06 | 25.02673 | 56.12814 | 11924 ft | 266 kts | 279° |
| 2026-04-26 22:07 | 25.02967 | 56.10818 | 11638 ft | 261 kts | 279° |
| 2026-04-26 22:07 | 25.03259 | 56.08855 | 11359 ft | 257 kts | 279° |
| 2026-04-26 22:07 | 25.03550 | 56.06927 | 11047 ft | 252 kts | 279° |
| 2026-04-26 22:07 | 25.03838 | 56.05043 | 10793 ft | 249 kts | 279° |
| 2026-04-26 22:08 | 25.04129 | 56.03142 | 10499 ft | 254 kts | 279° |
| 2026-04-26 22:08 | 25.04426 | 56.01208 | 10204 ft | 258 kts | 280° |
| 2026-04-26 22:08 | 25.04728 | 55.99246 | 9918 ft | 260 kts | 280° |
| 2026-04-26 22:08 | 25.05029 | 55.97292 | 9605 ft | 256 kts | 280° |
| 2026-04-26 22:09 | 25.05322 | 55.95392 | 9289 ft | 252 kts | 280° |
| 2026-04-26 22:09 | 25.05614 | 55.93499 | 8995 ft | 248 kts | 280° |
| 2026-04-26 22:09 | 25.05902 | 55.91628 | 8699 ft | 247 kts | 280° |
| 2026-04-26 22:09 | 25.06191 | 55.89757 | 8420 ft | 248 kts | 280° |
| 2026-04-26 22:10 | 25.06481 | 55.87875 | 8153 ft | 249 kts | 281° |
| 2026-04-26 22:10 | 25.06770 | 55.85999 | 7871 ft | 246 kts | 281° |
| 2026-04-26 22:10 | 25.07055 | 55.84147 | 7589 ft | 243 kts | 281° |
| 2026-04-26 22:10 | 25.07335 | 55.82323 | 7299 ft | 239 kts | 281° |
| 2026-04-26 22:11 | 25.07612 | 55.80521 | 7033 ft | 236 kts | 281° |
| 2026-04-26 22:11 | 25.07882 | 55.78764 | 6768 ft | 235 kts | 281° |
| 2026-04-26 22:11 | 25.08155 | 55.76987 | 6496 ft | 236 kts | 281° |
| 2026-04-26 22:11 | 25.08431 | 55.75184 | 6240 ft | 240 kts | 281° |
| 2026-04-26 22:12 | 25.08710 | 55.73364 | 5995 ft | 241 kts | 281° |
| 2026-04-26 22:12 | 25.08990 | 55.71537 | 5728 ft | 240 kts | 281° |
| 2026-04-26 22:12 | 25.09262 | 55.69759 | 5583 ft | 228 kts | 281° |
| 2026-04-26 22:12 | 25.09516 | 55.68089 | 5450 ft | 214 kts | 281° |
| 2026-04-26 22:13 | 25.09755 | 55.66519 | 5268 ft | 204 kts | 281° |
| 2026-04-26 22:13 | 25.09985 | 55.65011 | 5046 ft | 195 kts | 281° |
| 2026-04-26 22:13 | 25.10353 | 55.63625 | 4793 ft | 185 kts | 296° |
| 2026-04-26 22:13 | 25.10950 | 55.62370 | 4582 ft | 186 kts | 299° |
| 2026-04-26 22:14 | 25.11593 | 55.61125 | 4327 ft | 187 kts | 300° |
| 2026-04-26 22:14 | 25.12251 | 55.59908 | 4071 ft | 183 kts | 301° |
| 2026-04-26 22:14 | 25.12904 | 55.58721 | 3826 ft | 180 kts | 301° |
| 2026-04-26 22:14 | 25.13556 | 55.57545 | 3626 ft | 179 kts | 300° |
| 2026-04-26 22:15 | 25.14209 | 55.56371 | 3396 ft | 181 kts | 300° |
| 2026-04-26 22:15 | 25.14867 | 55.55188 | 3177 ft | 182 kts | 300° |
| 2026-04-26 22:15 | 25.15523 | 55.54008 | 2944 ft | 182 kts | 300° |
| 2026-04-26 22:15 | 25.16184 | 55.52820 | 2717 ft | 181 kts | 300° |
| 2026-04-26 22:16 | 25.16820 | 55.51677 | 2497 ft | 174 kts | 300° |
| 2026-04-26 22:16 | 25.17448 | 55.50547 | 2281 ft | 166 kts | 300° |
| 2026-04-26 22:16 | 25.18024 | 55.49510 | 2055 ft | 153 kts | 301° |
| 2026-04-26 22:16 | 25.18545 | 55.48572 | 1869 ft | 133 kts | 301° |
| 2026-04-26 22:17 | 25.19029 | 55.47701 | 1717 ft | 135 kts | 301° |
| 2026-04-26 22:17 | 25.19456 | 55.46933 | 1568 ft | 131 kts | 300° |
| 2026-04-26 22:17 | 25.19928 | 55.46081 | 1388 ft | 127 kts | 302° |
| 2026-04-26 22:17 | 25.20397 | 55.45238 | 1232 ft | 131 kts | 301° |
| 2026-04-26 22:18 | 25.20877 | 55.44362 | 1082 ft | 135 kts | 300° |
| 2026-04-26 22:18 | 25.21380 | 55.43472 | 923 ft | 140 kts | 301° |
| 2026-04-26 22:18 | 25.21908 | 55.42541 | 730 ft | 145 kts | 301° |
| 2026-04-26 22:18 | 25.22442 | 55.41573 | 566 ft | 148 kts | 301° |
| 2026-04-26 22:19 | 25.22986 | 55.40586 | 352 ft | 154 kts | 298° |
| 2026-04-26 22:19 | 25.23541 | 55.39580 | 139 ft | 155 kts | 299° |
| 2026-04-26 22:19 | 25.24100 | 55.38576 | 33 ft | 144 kts | 300° |
| 2026-04-26 22:19 | 25.24574 | 55.37712 | 16 ft | 117 kts | 301° |
| 2026-04-26 22:20 | 25.24934 | 55.37063 | 15 ft | 82 kts | 301° |
| 2026-04-26 22:20 | 25.25101 | 55.36758 | 15 ft | 61 kts | 301° |
| 2026-04-26 22:20 | 25.25297 | 55.36382 | 14 ft | 22 kts | 282° |
| 2026-04-26 22:20 | 25.25246 | 55.36301 | 14 ft | 13 kts | 214° |
| 2026-04-26 22:21 | 25.25174 | 55.36247 | 14 ft | 13 kts | 216° |
| 2026-04-26 22:21 | 25.25161 | 55.36236 | 14 ft | 1 kts | 220° |
| 2026-04-26 22:21 | 25.25152 | 55.36225 | 14 ft | 3 kts | 232° |
| 2026-04-26 22:21 | 25.25145 | 55.36201 | 14 ft | 4 kts | 264° |
| 2026-04-26 22:22 | 25.25156 | 55.36170 | 14 ft | 5 kts | 299° |
| 2026-04-26 22:22 | 25.25177 | 55.36132 | 14 ft | 7 kts | 303° |
| 2026-04-26 22:22 | 25.25206 | 55.36083 | 14 ft | 9 kts | 303° |
| 2026-04-26 22:22 | 25.25244 | 55.36020 | 14 ft | 12 kts | 303° |
| 2026-04-26 22:23 | 25.25294 | 55.35933 | 14 ft | 15 kts | 302° |
| 2026-04-26 22:23 | 25.25356 | 55.35823 | 14 ft | 18 kts | 300° |
| 2026-04-26 22:23 | 25.25420 | 55.35706 | 14 ft | 18 kts | 302° |
| 2026-04-26 22:23 | 25.25485 | 55.35589 | 14 ft | 18 kts | 300° |
| 2026-04-26 22:24 | 25.25548 | 55.35471 | 14 ft | 18 kts | 300° |
| 2026-04-26 22:24 | 25.25611 | 55.35354 | 14 ft | 18 kts | 300° |
| 2026-04-26 22:24 | 25.25675 | 55.35236 | 14 ft | 18 kts | 303° |
| 2026-04-26 22:24 | 25.25743 | 55.35128 | 14 ft | 18 kts | 302° |
| 2026-04-26 22:25 | 25.25807 | 55.35008 | 14 ft | 18 kts | 300° |
| 2026-04-26 22:25 | 25.25871 | 55.34885 | 15 ft | 19 kts | 301° |
| 2026-04-26 22:25 | 25.25939 | 55.34763 | 15 ft | 19 kts | 301° |
| 2026-04-26 22:25 | 25.26006 | 55.34642 | 14 ft | 19 kts | 301° |
| 2026-04-26 22:26 | 25.26073 | 55.34522 | 14 ft | 19 kts | 301° |
| 2026-04-26 22:26 | 25.26142 | 55.34398 | 14 ft | 19 kts | 302° |
| 2026-04-26 22:26 | 25.26212 | 55.34272 | 14 ft | 19 kts | 301° |
| 2026-04-26 22:26 | 25.26284 | 55.34165 | 14 ft | 14 kts | 335° |
| 2026-04-26 22:27 | 25.26367 | 55.34120 | 14 ft | 11 kts | 304° |
| 2026-04-26 22:27 | 25.26406 | 55.34052 | 14 ft | 11 kts | 300° |
| 2026-04-26 22:27 | 25.26441 | 55.33985 | 14 ft | 8 kts | 300° |
| 2026-04-26 22:27 | 25.26454 | 55.33957 | 14 ft | 0 kts | 287° |
| 2026-04-26 22:28 | 25.26455 | 55.33949 | 14 ft | 2 kts | 275° |
| 2026-04-26 22:28 | 25.26450 | 55.33932 | 14 ft | 3 kts | 246° |
| 2026-04-26 22:28 | 25.26442 | 55.33922 | 14 ft | 1 kts | 225° |
| 2026-04-26 22:28 | 25.26464 | 55.33954 | 14 ft | 0 kts | 225° |
| 2026-04-26 22:29 | 25.26457 | 55.33948 | 14 ft | 2 kts | 217° |
| 2026-04-26 22:29 | 25.26441 | 55.33940 | 14 ft | 3 kts | 200° |
| 2026-04-26 22:29 | 25.26415 | 55.33927 | 14 ft | 5 kts | 208° |
| 2026-04-26 22:29 | 25.26389 | 55.33909 | 14 ft | 0 kts | 211° |
| 2026-04-26 22:30 | 25.26385 | 55.33907 | 14 ft | 1 kts | 211° |
| 2026-04-26 22:30 | 25.26382 | 55.33905 | 14 ft | 0 kts | 212° |